createdAt,value
2018-12-08T06:33:01.064Z,0.1
2018-12-08T06:36:01.075Z,0.2
2018-12-08T06:37:01.184Z,0.3
2018-12-08T06:39:01.973Z,0.4
2018-12-08T06:40:01.088Z,0.5
2018-12-08T06:41:01.074Z,0.7
2018-12-08T06:42:01.185Z,0.8
2018-12-08T06:43:01.050Z,1.0
2018-12-08T06:44:01.051Z,1.1
2018-12-08T06:45:01.080Z,1.3
2018-12-08T06:46:01.078Z,1.6
2018-12-08T06:47:01.350Z,1.9
2018-12-08T06:48:01.053Z,2.5
2018-12-08T06:49:01.055Z,3.0
2018-12-08T06:50:01.053Z,3.5
2018-12-08T06:51:01.079Z,4.0
2018-12-08T06:52:02.072Z,4.6
2018-12-08T06:53:01.114Z,5.5
2018-12-08T06:54:01.059Z,6.5
2018-12-08T06:55:01.054Z,7.5
2018-12-08T06:56:06.069Z,9.1
2018-12-08T06:57:01.237Z,10.6
2018-12-08T06:58:01.055Z,11.9
2018-12-08T06:59:01.058Z,13.5
2018-12-08T07:00:01.081Z,15.5
2018-12-08T07:01:06.056Z,18.0
2018-12-08T07:02:01.290Z,20.9
2018-12-08T07:03:01.053Z,23.6
2018-12-08T07:04:01.055Z,26.5
2018-12-08T07:05:01.189Z,29.8
2018-12-08T07:06:06.062Z,33.5
2018-12-08T07:07:01.225Z,38.7
2018-12-08T07:08:01.060Z,43.7
2018-12-08T07:09:01.680Z,48.8
2018-12-08T07:10:01.055Z,53.8
2018-12-08T07:11:01.092Z,58.9
2018-12-08T07:12:01.195Z,65.7
2018-12-08T07:13:01.099Z,75.2
2018-12-08T07:14:01.061Z,86.0
2018-12-08T07:15:01.089Z,96.0
2018-12-08T07:16:01.055Z,109.2
2018-12-08T07:17:01.325Z,125.2
2018-12-08T07:18:01.129Z,142.5
2018-12-08T07:19:01.095Z,161.1
2018-12-08T07:20:01.089Z,183.2
2018-12-08T07:21:01.065Z,209.8
2018-12-08T07:22:01.200Z,238.1
2018-12-08T07:23:01.092Z,275.9
2018-12-08T07:24:01.057Z,319.1
2018-12-08T07:25:01.058Z,360.2
2018-12-08T07:26:01.094Z,396.1
2018-12-08T07:27:01.298Z,427.1
2018-12-08T07:28:01.063Z,452.9
2018-12-08T07:29:01.093Z,487.9
2018-12-08T07:30:01.063Z,525.6
2018-12-08T07:31:01.070Z,554.1
2018-12-08T07:32:01.233Z,583.2
2018-12-08T07:33:01.058Z,601.3
2018-12-08T07:34:01.066Z,624.9
2018-12-08T07:35:01.064Z,656.9
2018-12-08T07:36:01.094Z,679.5
2018-12-08T07:37:01.242Z,716.2
2018-12-08T07:38:01.096Z,773.1
2018-12-08T07:39:01.060Z,858.5
2018-12-08T07:40:01.064Z,971.5
2018-12-08T07:41:01.063Z,1085.1
2018-12-08T07:42:01.306Z,1190.3
2018-12-08T07:43:01.063Z,1315.0
2018-12-08T07:44:01.065Z,1484.5
2018-12-08T07:46:01.047Z,1586.3
2018-12-08T07:47:01.273Z,1717.1
2018-12-08T07:48:01.082Z,1822.7
2018-12-08T07:49:01.059Z,1903.2
2018-12-08T07:50:01.083Z,1945.6
2018-12-08T07:51:01.083Z,1975.5
2018-12-08T07:52:01.220Z,2052.0
2018-12-08T07:53:01.048Z,2122.8
2018-12-08T07:54:01.054Z,2117.6
2018-12-08T07:55:01.109Z,2108.1
2018-12-08T07:56:01.051Z,2096.7
2018-12-08T07:57:01.260Z,2094.4
2018-12-08T07:58:01.053Z,2105.9
2018-12-08T07:59:01.057Z,2252.3
2018-12-08T08:00:01.050Z,2363.2
2018-12-08T08:01:01.161Z,2654.9
2018-12-08T08:02:01.276Z,2940.7
2018-12-08T08:03:01.053Z,3237.9
2018-12-08T08:04:01.055Z,3592.3
2018-12-08T08:05:01.112Z,4044.4
2018-12-08T08:06:01.055Z,4380.6
2018-12-08T08:07:01.216Z,4621.1
2018-12-08T08:08:01.059Z,4775.9
2018-12-08T08:09:01.086Z,4894.5
2018-12-08T08:10:01.054Z,4937.3
2018-12-08T08:11:01.055Z,4984.7
2018-12-08T08:12:01.200Z,4983.0
2018-12-08T08:13:01.091Z,4974.6
2018-12-08T08:14:01.055Z,4852.0
2018-12-08T08:15:01.056Z,4722.5
2018-12-08T08:16:01.087Z,4491.9
2018-12-08T08:17:01.220Z,4288.5
2018-12-08T08:18:01.092Z,4183.3
2018-12-08T08:19:01.098Z,4095.4
2018-12-08T08:20:01.091Z,3933.7
2018-12-08T08:21:01.094Z,3881.5
2018-12-08T08:22:01.255Z,3894.1
2018-12-08T08:23:01.059Z,3914.8
2018-12-08T08:24:01.091Z,3990.4
2018-12-08T08:25:01.101Z,4091.7
2018-12-08T08:26:01.094Z,4085.0
2018-12-08T08:27:02.382Z,4099.1
2018-12-08T08:28:01.069Z,4151.6
2018-12-08T08:29:01.068Z,4183.3
2018-12-08T08:30:01.064Z,4239.3
2018-12-08T08:31:01.068Z,4241.0
2018-12-08T08:32:01.236Z,4149.9
2018-12-08T08:33:01.096Z,3997.8
2018-12-08T08:34:01.064Z,3789.8
2018-12-08T08:35:01.069Z,3597.7
2018-12-08T08:36:01.065Z,3438.3
2018-12-08T08:38:01.058Z,3299.8
2018-12-08T08:39:01.079Z,3202.5
2018-12-08T08:40:06.051Z,3152.7
2018-12-08T08:41:01.082Z,3140.3
2018-12-08T08:42:01.229Z,3206.1
2018-12-08T08:43:01.051Z,3296.2
2018-12-08T08:44:01.082Z,3317.8
2018-12-08T08:45:01.090Z,3349.8
2018-12-08T08:46:01.062Z,3392.1
2018-12-08T08:47:01.328Z,3481.5
2018-12-08T08:48:01.091Z,3643.3
2018-12-08T08:49:01.092Z,3868.1
2018-12-08T08:50:01.085Z,4158.8
2018-12-08T08:51:01.089Z,4659.4
2018-12-08T08:52:01.277Z,5452.0
2018-12-08T08:53:02.575Z,6439.8
2018-12-08T08:54:01.089Z,7094.5
2018-12-08T08:55:01.094Z,7773.1
2018-12-08T08:56:01.093Z,8579.4
2018-12-08T08:57:01.332Z,9235.1
2018-12-08T08:58:01.094Z,9542.9
2018-12-08T08:59:01.065Z,9880.8
2018-12-08T09:00:01.096Z,10248.5
2018-12-08T09:01:01.064Z,10559.4
2018-12-08T09:02:01.284Z,10851.2
2018-12-08T09:03:01.062Z,11433.1
2018-12-08T09:04:01.063Z,11788.6
2018-12-08T09:05:01.108Z,11995.6
2018-12-08T09:06:01.067Z,12029.5
2018-12-08T09:07:01.389Z,11763.6
2018-12-08T09:08:01.070Z,11349.3
2018-12-08T09:09:01.099Z,11242.2
2018-12-08T09:10:02.135Z,11269.7
2018-12-08T09:11:01.064Z,11222.3
2018-12-08T09:12:01.262Z,11218.0
2018-12-08T09:13:01.064Z,11512.4
2018-12-08T09:14:01.096Z,12004.1
2018-12-08T09:16:01.079Z,12067.3
2018-12-08T09:17:01.185Z,12103.7
2018-12-08T09:18:01.048Z,12159.9
2018-12-08T09:19:01.083Z,11840.1
2018-12-08T09:20:01.079Z,11823.4
2018-12-08T09:21:01.079Z,11972.3
2018-12-08T09:22:01.231Z,12031.8
2018-12-08T09:23:01.061Z,12207.4
2018-12-08T09:24:01.093Z,12461.5
2018-12-08T09:25:01.050Z,13332.7
2018-12-08T09:26:01.051Z,14080.9
2018-12-08T09:27:01.189Z,14614.4
2018-12-08T09:28:01.087Z,14776.5
2018-12-08T09:29:01.088Z,14853.7
2018-12-08T09:30:01.051Z,14759.7
2018-12-08T09:31:01.053Z,15250.7
2018-12-08T09:32:01.230Z,15928.5
2018-12-08T09:33:01.085Z,16225.8
2018-12-08T09:34:01.057Z,16863.8
2018-12-08T09:35:01.094Z,17135.1
2018-12-08T09:36:01.055Z,17649.7
2018-12-08T09:37:01.195Z,18518.9
2018-12-08T09:38:01.055Z,19378.8
2018-12-08T09:39:02.074Z,20214.7
2018-12-08T09:40:01.059Z,20361.5
2018-12-08T09:41:01.060Z,20564.1
2018-12-08T09:42:01.201Z,20746.1
2018-12-08T09:43:01.062Z,21034.3
2018-12-08T09:44:01.087Z,21263.0
2018-12-08T09:45:01.063Z,21567.9
2018-12-08T09:46:01.089Z,21579.9
2018-12-08T09:47:01.233Z,21312.7
2018-12-08T09:48:01.089Z,21654.0
2018-12-08T09:49:01.092Z,21552.5
2018-12-08T09:50:01.072Z,21363.3
2018-12-08T09:51:01.779Z,20806.1
2018-12-08T09:52:01.266Z,19793.0
2018-12-08T09:53:01.091Z,18627.6
2018-12-08T09:54:01.059Z,17304.9
2018-12-08T09:55:01.057Z,16175.9
2018-12-08T09:56:01.061Z,14904.8
2018-12-08T09:57:01.201Z,13671.3
2018-12-08T09:58:06.100Z,12813.9
2018-12-08T09:59:01.097Z,12310.3
2018-12-08T10:00:01.062Z,11946.1
2018-12-08T10:01:01.059Z,11474.5
2018-12-08T10:02:01.208Z,11066.8
2018-12-08T10:03:01.122Z,10390.0
2018-12-08T10:04:06.100Z,10099.9
2018-12-08T10:05:01.525Z,10091.7
2018-12-08T10:06:01.098Z,10026.3
2018-12-08T10:07:01.264Z,10221.8
2018-12-08T10:08:01.097Z,10377.8
2018-12-08T10:09:06.102Z,10495.3
2018-12-08T10:11:01.155Z,10772.3
2018-12-08T10:12:01.197Z,11281.9
2018-12-08T10:13:01.061Z,11949.4
2018-12-08T10:14:01.108Z,12751.1
2018-12-08T10:15:01.083Z,14110.2
2018-12-08T10:16:01.083Z,15306.7
2018-12-08T10:17:01.261Z,16558.2
2018-12-08T10:18:01.084Z,17715.6
2018-12-08T10:19:01.079Z,18961.9
2018-12-08T10:20:01.057Z,20446.7
2018-12-08T10:21:01.093Z,22545.5
2018-12-08T10:22:01.195Z,24947.4
2018-12-08T10:23:01.058Z,26436.3
2018-12-08T10:24:06.054Z,27369.8
2018-12-08T10:25:01.059Z,27883.9
2018-12-08T10:26:01.097Z,27971.7
2018-12-08T10:27:01.200Z,27796.2
2018-12-08T10:28:06.071Z,27524.8
2018-12-08T10:29:01.094Z,26969.3
2018-12-08T10:30:01.089Z,25599.3
2018-12-08T10:31:01.058Z,24207.5
2018-12-08T10:32:01.195Z,23011.2
2018-12-08T10:33:01.094Z,22211.6
2018-12-08T10:34:01.091Z,21662.9
2018-12-08T10:35:01.094Z,20366.9
2018-12-08T10:36:01.058Z,18440.8
2018-12-08T10:37:01.234Z,16538.5
2018-12-08T10:38:06.099Z,15208.9
2018-12-08T10:39:01.060Z,14503.4
2018-12-08T10:40:06.057Z,14031.7
2018-12-08T10:41:01.089Z,13864.5
2018-12-08T10:42:01.539Z,13988.5
2018-12-08T10:43:01.126Z,14015.4
2018-12-08T10:44:01.090Z,14210.7
2018-12-08T10:45:01.100Z,14712.6
2018-12-08T10:46:01.092Z,15461.6
2018-12-08T10:47:01.199Z,16701.7
2018-12-08T10:48:01.116Z,17911.4
2018-12-08T10:49:01.123Z,18376.3
2018-12-08T10:50:01.097Z,18959.0
2018-12-08T10:51:01.060Z,19541.7
2018-12-08T10:52:01.207Z,20169.6
2018-12-08T10:53:01.125Z,21639.2
2018-12-08T10:54:01.068Z,22845.9
2018-12-08T10:55:01.098Z,24419.1
2018-12-08T10:56:01.093Z,26211.8
2018-12-08T10:57:01.202Z,27104.8
2018-12-08T10:58:01.094Z,27917.4
2018-12-08T10:59:01.093Z,28548.1
2018-12-08T11:00:01.102Z,29054.2
2018-12-08T11:01:01.093Z,29380.0
2018-12-08T11:02:02.261Z,28888.9
2018-12-08T11:03:06.074Z,28442.2
2018-12-08T11:04:01.983Z,28423.5
2018-12-08T11:05:01.063Z,28154.8
2018-12-08T11:06:01.065Z,28169.9
2018-12-08T11:07:01.231Z,28298.7
2018-12-08T11:08:06.105Z,27371.3
2018-12-08T11:10:01.049Z,26699.9
2018-12-08T11:11:01.088Z,25708.1
2018-12-08T11:12:01.232Z,24009.8
2018-12-08T11:13:01.051Z,22866.3
2018-12-08T11:14:01.084Z,22601.1
2018-12-08T11:15:01.074Z,23385.2
2018-12-08T11:16:01.084Z,23524.6
2018-12-08T11:17:02.492Z,23540.3
2018-12-08T11:18:02.396Z,24202.4
2018-12-08T11:19:01.085Z,25022.8
2018-12-08T11:20:01.087Z,27364.1
2018-12-08T11:21:01.088Z,29858.3
2018-12-08T11:22:01.197Z,32625.4
2018-12-08T11:23:01.087Z,34785.7
2018-12-08T11:24:01.115Z,37206.6
2018-12-08T11:25:01.053Z,39198.3
2018-12-08T11:26:01.087Z,41498.3
2018-12-08T11:27:01.227Z,44260.3
2018-12-08T11:28:01.053Z,46787.5
2018-12-08T11:29:06.062Z,48631.5
2018-12-08T11:30:01.054Z,49687.7
2018-12-08T11:31:01.086Z,50818.5
2018-12-08T11:32:01.225Z,51511.6
2018-12-08T11:33:01.092Z,51801.9
2018-12-08T11:34:06.059Z,51635.5
2018-12-08T11:35:01.092Z,49840.4
2018-12-08T11:36:01.092Z,47887.5
2018-12-08T11:37:01.234Z,44994.4
2018-12-08T11:38:01.092Z,42310.7
2018-12-08T11:39:01.125Z,39258.1
2018-12-08T11:40:01.061Z,36583.8
2018-12-08T11:41:01.088Z,34154.7
2018-12-08T11:42:01.323Z,31525.1
2018-12-08T11:43:01.058Z,28947.0
2018-12-08T11:44:01.116Z,26525.7
2018-12-08T11:45:01.057Z,24514.8
2018-12-08T11:46:01.057Z,23346.9
2018-12-08T11:47:01.206Z,22672.5
2018-12-08T11:48:01.064Z,21867.8
2018-12-08T11:49:01.093Z,20772.9
2018-12-08T11:50:01.105Z,19541.1
2018-12-08T11:51:01.064Z,18839.7
2018-12-08T11:52:01.206Z,18630.8
2018-12-08T11:53:01.063Z,18486.1
2018-12-08T11:54:01.099Z,19843.4
2018-12-08T11:55:01.097Z,22223.3
2018-12-08T11:56:01.097Z,24780.0
2018-12-08T11:57:01.208Z,27826.7
2018-12-08T11:58:01.097Z,30901.0
2018-12-08T11:59:01.092Z,34153.9
2018-12-08T12:00:01.097Z,37121.5
2018-12-08T12:01:01.064Z,39730.1
2018-12-08T12:02:01.230Z,42287.3
2018-12-08T12:03:01.104Z,44287.7
2018-12-08T12:04:01.108Z,46668.5
2018-12-08T12:06:01.050Z,48433.3
2018-12-08T12:07:02.149Z,50644.7
2018-12-08T12:08:01.080Z,53114.7
2018-12-08T12:09:01.051Z,56179.4
2018-12-08T12:10:01.086Z,58289.2
2018-12-08T12:11:01.049Z,59432.2
2018-12-08T12:12:01.290Z,59688.5
2018-12-08T12:13:01.080Z,58300.9
2018-12-08T12:14:01.054Z,57300.9
2018-12-08T12:15:02.403Z,56054.1
2018-12-08T12:16:01.049Z,54425.6
2018-12-08T12:17:01.194Z,52438.3
2018-12-08T12:18:01.092Z,50006.9
2018-12-08T12:19:01.080Z,47867.2
2018-12-08T12:20:01.081Z,45527.9
2018-12-08T12:21:01.061Z,43930.3
2018-12-08T12:22:01.194Z,41618.5
2018-12-08T12:23:01.082Z,38719.0
2018-12-08T12:24:01.081Z,35231.1
2018-12-08T12:25:01.056Z,31779.5
2018-12-08T12:26:01.083Z,28461.3
2018-12-08T12:27:01.264Z,25603.3
2018-12-08T12:28:01.084Z,24158.7
2018-12-08T12:29:01.085Z,23114.7
2018-12-08T12:30:01.050Z,22313.7
2018-12-08T12:31:01.087Z,21920.9
2018-12-08T12:32:03.437Z,22281.6
2018-12-08T12:33:01.055Z,22693.8
2018-12-08T12:34:01.057Z,22733.5
2018-12-08T12:35:01.057Z,22962.8
2018-12-08T12:36:01.116Z,22821.7
2018-12-08T12:37:01.200Z,22684.4
2018-12-08T12:38:01.091Z,23355.9
2018-12-08T12:39:06.073Z,24072.4
2018-12-08T12:40:01.090Z,24639.7
2018-12-08T12:41:06.098Z,24966.3
2018-12-08T12:42:01.232Z,24888.7
2018-12-08T12:43:01.095Z,24543.1
2018-12-08T12:44:01.063Z,24004.1
2018-12-08T12:45:01.099Z,23608.6
2018-12-08T12:46:01.128Z,24130.1
2018-12-08T12:47:01.246Z,24313.7
2018-12-08T12:48:01.066Z,24501.5
2018-12-08T12:49:01.102Z,24880.7
2018-12-08T12:50:02.078Z,25324.5
2018-12-08T12:51:06.103Z,27527.5
2018-12-08T12:52:01.264Z,30954.6
2018-12-08T12:53:01.292Z,33814.6
2018-12-08T12:54:01.067Z,35136.0
2018-12-08T12:55:01.070Z,36083.2
2018-12-08T12:56:06.106Z,36913.7
2018-12-08T12:58:01.188Z,38452.7
2018-12-08T12:59:01.085Z,40441.1
2018-12-08T13:00:01.052Z,41305.8
2018-12-08T13:01:01.078Z,41645.1
2018-12-08T13:02:01.087Z,40878.5
2018-12-08T13:03:01.281Z,40035.3
2018-12-08T13:04:02.433Z,39376.7
2018-12-08T13:05:01.152Z,39414.4
2018-12-08T13:06:01.051Z,39351.4
2018-12-08T13:07:01.086Z,37408.3
2018-12-08T13:08:01.200Z,33909.9
2018-12-08T13:09:01.058Z,30101.5
2018-12-08T13:10:01.086Z,27573.7
2018-12-08T13:11:01.058Z,25617.3
2018-12-08T13:12:01.088Z,24284.5
2018-12-08T13:13:01.232Z,23051.9
2018-12-08T13:14:01.093Z,22579.4
2018-12-08T13:15:01.058Z,23506.3
2018-12-08T13:16:01.090Z,23922.3
2018-12-08T13:17:01.090Z,23910.8
2018-12-08T13:18:01.269Z,23628.1
2018-12-08T13:19:01.055Z,23622.4
2018-12-08T13:20:01.087Z,23649.2
2018-12-08T13:21:01.057Z,23938.9
2018-12-08T13:22:01.090Z,24757.7
2018-12-08T13:23:02.359Z,25528.3
2018-12-08T13:24:01.064Z,26287.3
2018-12-08T13:25:01.065Z,27187.9
2018-12-08T13:26:01.095Z,28034.0
2018-12-08T13:27:01.071Z,28625.1
2018-12-08T13:28:01.735Z,29133.2
2018-12-08T13:29:02.158Z,28695.3
2018-12-08T13:30:01.069Z,27939.5
2018-12-08T13:31:01.099Z,27513.6
2018-12-08T13:32:01.102Z,27298.9
2018-12-08T13:33:01.243Z,27377.6
2018-12-08T13:34:01.101Z,27402.7
2018-12-08T13:35:01.101Z,27112.6
2018-12-08T13:36:01.094Z,26335.0
2018-12-08T13:37:01.063Z,25093.2
2018-12-08T13:39:01.296Z,23957.6
2018-12-08T13:40:01.050Z,22974.6
2018-12-08T13:41:02.626Z,22013.1
2018-12-08T13:42:01.085Z,20927.5
2018-12-08T13:43:01.085Z,19695.1
2018-12-08T13:44:01.202Z,18026.8
2018-12-08T13:45:01.084Z,16288.9
2018-12-08T13:46:01.080Z,14219.9
2018-12-08T13:47:01.081Z,12394.3
2018-12-08T13:48:01.085Z,10686.4
2018-12-08T13:49:01.257Z,8976.5
2018-12-08T13:50:01.087Z,7191.0
2018-12-08T13:51:01.064Z,5570.3
2018-12-08T13:52:01.084Z,4178.1
2018-12-08T13:53:01.051Z,3385.7
2018-12-08T13:54:01.193Z,3059.7
2018-12-08T13:55:01.077Z,2959.7
2018-12-08T13:56:01.084Z,2948.1
2018-12-08T13:57:01.094Z,3192.9
2018-12-08T13:58:01.095Z,3537.2
2018-12-08T13:59:01.238Z,3894.9
2018-12-08T14:00:01.087Z,4047.6
2018-12-08T14:01:01.089Z,4241.4
2018-12-08T14:02:01.087Z,4638.9
2018-12-08T14:03:02.077Z,5242.5
2018-12-08T14:04:01.261Z,5843.8
2018-12-08T14:05:01.091Z,6435.0
2018-12-08T14:06:01.172Z,7111.7
2018-12-08T14:07:01.060Z,7627.5
2018-12-08T14:08:01.060Z,7966.6
2018-12-08T14:09:01.335Z,8189.9
2018-12-08T14:10:01.096Z,8254.2
2018-12-08T14:11:01.166Z,8178.5
2018-12-08T14:12:01.095Z,7890.8
2018-12-08T14:13:01.096Z,7475.8
2018-12-08T14:14:01.567Z,7065.6
2018-12-08T14:15:01.102Z,6771.7
2018-12-08T14:16:01.097Z,6522.4
2018-12-08T14:17:01.063Z,6055.7
2018-12-08T14:18:01.099Z,5435.3
2018-12-08T14:20:01.219Z,4830.9
2018-12-08T14:21:01.079Z,4281.7
2018-12-08T14:22:01.052Z,3695.5
2018-12-08T14:23:01.047Z,3364.8
2018-12-08T14:24:01.126Z,3239.0
2018-12-08T14:25:01.208Z,3240.4
2018-12-08T14:26:01.050Z,3301.9
2018-12-08T14:27:01.083Z,3392.0
2018-12-08T14:28:01.092Z,3546.0
2018-12-08T14:29:01.080Z,3733.2
2018-12-08T14:30:01.194Z,3966.4
2018-12-08T14:31:01.083Z,4232.1
2018-12-08T14:32:01.054Z,4452.2
2018-12-08T14:33:01.069Z,4716.8
2018-12-08T14:34:06.092Z,4946.1
2018-12-08T14:35:01.208Z,5125.1
2018-12-08T14:36:01.092Z,5304.3
2018-12-08T14:37:01.082Z,5440.2
2018-12-08T14:38:01.083Z,5427.2
2018-12-08T14:39:01.062Z,5268.0
2018-12-08T14:40:01.301Z,4995.8
2018-12-08T14:41:01.052Z,4725.1
2018-12-08T14:42:01.063Z,4480.8
2018-12-08T14:43:01.091Z,4211.4
2018-12-08T14:44:01.058Z,3920.1
2018-12-08T14:45:01.264Z,3549.6
2018-12-08T14:46:01.052Z,3156.7
2018-12-08T14:47:01.083Z,2772.5
2018-12-08T14:48:01.103Z,2400.3
2018-12-08T14:49:01.061Z,2062.5
2018-12-08T14:50:01.236Z,1803.8
2018-12-08T14:51:01.161Z,1561.3
2018-12-08T14:52:01.061Z,1343.3
2018-12-08T14:53:01.100Z,1169.3
2018-12-08T14:54:01.091Z,1043.1
2018-12-08T14:55:01.270Z,974.7
2018-12-08T14:56:01.058Z,931.6
2018-12-08T14:57:01.056Z,878.8
2018-12-08T14:58:03.794Z,824.7
2018-12-08T14:59:01.089Z,781.9
2018-12-08T15:00:01.233Z,762.9
2018-12-08T15:01:01.061Z,750.3
2018-12-08T15:02:01.090Z,737.1
2018-12-08T15:03:01.058Z,715.4
2018-12-08T15:04:01.059Z,679.1
2018-12-08T15:05:01.264Z,605.1
2018-12-08T15:06:01.093Z,534.7
2018-12-08T15:07:01.066Z,451.9
2018-12-08T15:08:06.094Z,377.7
2018-12-08T15:09:01.069Z,327.1
2018-12-08T15:10:01.341Z,276.0
2018-12-08T15:11:01.094Z,236.8
2018-12-08T15:12:01.095Z,211.7
2018-12-08T15:13:06.069Z,202.6
2018-12-08T15:14:01.065Z,203.2
2018-12-08T15:15:01.249Z,212.9
2018-12-08T15:16:01.094Z,224.5
2018-12-08T15:17:01.092Z,232.5
2018-12-08T15:18:06.095Z,239.5
2018-12-08T15:19:01.095Z,243.9
2018-12-08T15:20:01.251Z,243.2
2018-12-08T15:21:01.093Z,234.8
2018-12-08T15:22:01.067Z,225.3
2018-12-08T15:23:06.107Z,214.0
2018-12-08T15:24:01.070Z,203.8
2018-12-08T15:25:01.216Z,198.2
2018-12-08T15:26:01.102Z,193.3
2018-12-08T15:27:01.062Z,186.4
2018-12-08T15:28:06.101Z,175.1
2018-12-08T15:29:01.096Z,161.0
2018-12-08T15:30:01.244Z,141.6
2018-12-08T15:31:02.022Z,122.9
2018-12-08T15:32:01.071Z,109.2
2018-12-08T15:34:01.111Z,97.3
2018-12-08T15:35:01.189Z,86.6
2018-12-08T15:36:01.088Z,75.6
2018-12-08T15:37:01.086Z,63.2
2018-12-08T15:38:01.073Z,50.8
2018-12-08T15:39:01.086Z,39.8
2018-12-08T15:40:01.210Z,30.7
2018-12-08T15:41:01.088Z,24.3
2018-12-08T15:42:01.052Z,20.3
2018-12-08T15:43:01.111Z,16.6
2018-12-08T15:44:01.085Z,13.7
2018-12-08T15:45:01.238Z,11.3
2018-12-08T15:46:01.053Z,9.1
2018-12-08T15:47:01.057Z,7.2
2018-12-08T15:48:02.413Z,5.7
2018-12-08T15:49:01.775Z,5.0
2018-12-08T15:50:01.241Z,4.5
2018-12-08T15:51:01.162Z,4.1
2018-12-08T15:52:01.086Z,3.7
2018-12-08T15:53:01.090Z,3.5
2018-12-08T15:54:01.090Z,3.3
2018-12-08T15:55:01.211Z,2.9
2018-12-08T15:56:01.057Z,2.5
2018-12-08T15:57:01.088Z,2.1
2018-12-08T15:58:01.080Z,1.7
2018-12-08T15:59:01.056Z,1.4
2018-12-08T16:00:01.318Z,1.1
2018-12-08T16:01:01.133Z,0.9
2018-12-08T16:02:02.003Z,0.7
2018-12-08T16:03:01.086Z,0.5
2018-12-08T16:04:01.063Z,0.4
2018-12-08T16:05:01.200Z,0.3
2018-12-08T16:07:01.332Z,0.2
2018-12-08T16:08:01.089Z,0.1
